sensor_id;sensor_type;location;lat;lon;timestamp;P1;durP1;ratioP1;P2;durP2;ratioP2
83055;SDS011;72881;43.514;1.510;2024-03-02T00:02:01;2.15;;;1.10;;
83055;SDS011;72881;43.514;1.510;2024-03-02T00:04:26;2.45;;;1.27;;
83055;SDS011;72881;43.514;1.510;2024-03-02T00:06:52;2.95;;;1.30;;
83055;SDS011;72881;43.514;1.510;2024-03-02T00:09:20;1.80;;;1.05;;
83055;SDS011;72881;43.514;1.510;2024-03-02T00:11:46;3.28;;;1.27;;
83055;SDS011;72881;43.514;1.510;2024-03-02T00:14:11;2.60;;;1.27;;
83055;SDS011;72881;43.514;1.510;2024-03-02T00:16:37;2.58;;;1.23;;
83055;SDS011;72881;43.514;1.510;2024-03-02T00:19:03;3.55;;;1.20;;
83055;SDS011;72881;43.514;1.510;2024-03-02T00:21:30;2.38;;;1.13;;
83055;SDS011;72881;43.514;1.510;2024-03-02T00:23:56;2.03;;;1.13;;
83055;SDS011;72881;43.514;1.510;2024-03-02T00:26:21;2.40;;;1.15;;
83055;SDS011;72881;43.514;1.510;2024-03-02T00:28:47;2.45;;;1.15;;
83055;SDS011;72881;43.514;1.510;2024-03-02T00:31:15;2.28;;;1.10;;
83055;SDS011;72881;43.514;1.510;2024-03-02T00:33:44;2.63;;;1.20;;
83055;SDS011;72881;43.514;1.510;2024-03-02T00:36:11;2.35;;;1.40;;
83055;SDS011;72881;43.514;1.510;2024-03-02T00:38:44;3.10;;;1.40;;
83055;SDS011;72881;43.514;1.510;2024-03-02T00:41:16;2.22;;;1.00;;
83055;SDS011;72881;43.514;1.510;2024-03-02T00:44:03;3.08;;;1.20;;
83055;SDS011;72881;43.514;1.510;2024-03-02T00:46:34;2.75;;;1.27;;
83055;SDS011;72881;43.514;1.510;2024-03-02T00:49:02;3.33;;;1.20;;
83055;SDS011;72881;43.514;1.510;2024-03-02T00:51:29;4.05;;;1.10;;
83055;SDS011;72881;43.514;1.510;2024-03-02T00:53:57;2.10;;;1.20;;
83055;SDS011;72881;43.514;1.510;2024-03-02T00:56:24;2.47;;;1.10;;
83055;SDS011;72881;43.514;1.510;2024-03-02T00:58:50;2.10;;;1.20;;
83055;SDS011;72881;43.514;1.510;2024-03-02T01:01:17;2.70;;;1.20;;
83055;SDS011;72881;43.514;1.510;2024-03-02T01:03:42;3.20;;;1.30;;
83055;SDS011;72881;43.514;1.510;2024-03-02T01:06:08;1.42;;;0.90;;
83055;SDS011;72881;43.514;1.510;2024-03-02T01:08:34;2.33;;;1.13;;
83055;SDS011;72881;43.514;1.510;2024-03-02T01:11:00;3.33;;;1.30;;
83055;SDS011;72881;43.514;1.510;2024-03-02T01:13:26;2.10;;;1.17;;
83055;SDS011;72881;43.514;1.510;2024-03-02T01:15:52;2.30;;;1.30;;
83055;SDS011;72881;43.514;1.510;2024-03-02T01:18:18;2.55;;;1.20;;
83055;SDS011;72881;43.514;1.510;2024-03-02T01:20:44;2.28;;;1.23;;
83055;SDS011;72881;43.514;1.510;2024-03-02T01:23:09;2.17;;;1.17;;
83055;SDS011;72881;43.514;1.510;2024-03-02T01:25:35;2.78;;;1.23;;
83055;SDS011;72881;43.514;1.510;2024-03-02T01:28:01;2.75;;;1.15;;
83055;SDS011;72881;43.514;1.510;2024-03-02T01:30:26;2.78;;;1.20;;
83055;SDS011;72881;43.514;1.510;2024-03-02T01:32:52;1.73;;;0.98;;
83055;SDS011;72881;43.514;1.510;2024-03-02T01:35:17;2.90;;;1.27;;
83055;SDS011;72881;43.514;1.510;2024-03-02T01:37:43;2.47;;;1.20;;
83055;SDS011;72881;43.514;1.510;2024-03-02T01:40:09;2.25;;;1.13;;
83055;SDS011;72881;43.514;1.510;2024-03-02T01:42:38;2.50;;;1.20;;
83055;SDS011;72881;43.514;1.510;2024-03-02T01:45:07;2.92;;;1.40;;
83055;SDS011;72881;43.514;1.510;2024-03-02T01:47:33;2.72;;;1.17;;
83055;SDS011;72881;43.514;1.510;2024-03-02T01:49:59;2.50;;;1.02;;
83055;SDS011;72881;43.514;1.510;2024-03-02T01:52:25;2.72;;;1.23;;
83055;SDS011;72881;43.514;1.510;2024-03-02T01:54:51;2.33;;;0.90;;
83055;SDS011;72881;43.514;1.510;2024-03-02T01:57:17;2.95;;;1.10;;
83055;SDS011;72881;43.514;1.510;2024-03-02T01:59:43;2.15;;;1.05;;
83055;SDS011;72881;43.514;1.510;2024-03-02T02:02:08;1.83;;;1.00;;
83055;SDS011;72881;43.514;1.510;2024-03-02T02:04:34;2.42;;;1.20;;
83055;SDS011;72881;43.514;1.510;2024-03-02T02:06:59;3.58;;;1.23;;
83055;SDS011;72881;43.514;1.510;2024-03-02T02:09:25;1.90;;;1.17;;
83055;SDS011;72881;43.514;1.510;2024-03-02T02:11:51;2.22;;;1.23;;
83055;SDS011;72881;43.514;1.510;2024-03-02T02:14:16;2.38;;;1.30;;
83055;SDS011;72881;43.514;1.510;2024-03-02T02:16:42;2.65;;;1.00;;
83055;SDS011;72881;43.514;1.510;2024-03-02T02:19:08;1.90;;;1.10;;
83055;SDS011;72881;43.514;1.510;2024-03-02T02:21:34;2.28;;;1.10;;
83055;SDS011;72881;43.514;1.510;2024-03-02T02:24:00;2.25;;;1.00;;
83055;SDS011;72881;43.514;1.510;2024-03-02T02:26:28;2.17;;;1.15;;
83055;SDS011;72881;43.514;1.510;2024-03-02T02:28:53;1.92;;;0.93;;
83055;SDS011;72881;43.514;1.510;2024-03-02T02:31:19;2.15;;;1.10;;
83055;SDS011;72881;43.514;1.510;2024-03-02T02:33:44;2.05;;;1.02;;
83055;SDS011;72881;43.514;1.510;2024-03-02T02:36:09;2.08;;;1.17;;
83055;SDS011;72881;43.514;1.510;2024-03-02T02:38:36;2.10;;;1.10;;
83055;SDS011;72881;43.514;1.510;2024-03-02T02:41:04;2.33;;;1.10;;
83055;SDS011;72881;43.514;1.510;2024-03-02T02:43:29;1.60;;;1.10;;
83055;SDS011;72881;43.514;1.510;2024-03-02T02:45:55;2.20;;;1.05;;
83055;SDS011;72881;43.514;1.510;2024-03-02T02:48:20;2.55;;;1.17;;
83055;SDS011;72881;43.514;1.510;2024-03-02T02:50:46;1.95;;;1.10;;
83055;SDS011;72881;43.514;1.510;2024-03-02T02:53:11;2.58;;;1.10;;
83055;SDS011;72881;43.514;1.510;2024-03-02T02:55:37;2.25;;;1.10;;
83055;SDS011;72881;43.514;1.510;2024-03-02T02:58:08;2.05;;;1.10;;
83055;SDS011;72881;43.514;1.510;2024-03-02T03:00:36;2.28;;;1.20;;
83055;SDS011;72881;43.514;1.510;2024-03-02T03:03:02;2.33;;;1.20;;
83055;SDS011;72881;43.514;1.510;2024-03-02T03:05:28;2.22;;;1.20;;
83055;SDS011;72881;43.514;1.510;2024-03-02T03:07:53;2.47;;;1.33;;
83055;SDS011;72881;43.514;1.510;2024-03-02T03:10:19;2.15;;;1.08;;
83055;SDS011;72881;43.514;1.510;2024-03-02T03:12:47;1.98;;;1.10;;
83055;SDS011;72881;43.514;1.510;2024-03-02T03:15:12;2.15;;;1.05;;
83055;SDS011;72881;43.514;1.510;2024-03-02T03:17:38;2.38;;;0.90;;
83055;SDS011;72881;43.514;1.510;2024-03-02T03:20:03;2.35;;;1.08;;
83055;SDS011;72881;43.514;1.510;2024-03-02T03:22:30;1.60;;;0.80;;
83055;SDS011;72881;43.514;1.510;2024-03-02T03:25:00;2.00;;;1.00;;
83055;SDS011;72881;43.514;1.510;2024-03-02T03:27:25;2.20;;;1.00;;
83055;SDS011;72881;43.514;1.510;2024-03-02T03:29:51;1.80;;;1.00;;
83055;SDS011;72881;43.514;1.510;2024-03-02T03:32:17;1.90;;;0.90;;
83055;SDS011;72881;43.514;1.510;2024-03-02T03:34:42;1.85;;;0.90;;
83055;SDS011;72881;43.514;1.510;2024-03-02T03:37:08;1.80;;;1.10;;
83055;SDS011;72881;43.514;1.510;2024-03-02T03:39:34;2.08;;;1.10;;
83055;SDS011;72881;43.514;1.510;2024-03-02T03:42:03;1.85;;;1.10;;
83055;SDS011;72881;43.514;1.510;2024-03-02T03:44:28;1.95;;;0.90;;
83055;SDS011;72881;43.514;1.510;2024-03-02T03:46:54;1.70;;;0.88;;
83055;SDS011;72881;43.514;1.510;2024-03-02T03:49:19;2.63;;;1.20;;
83055;SDS011;72881;43.514;1.510;2024-03-02T03:51:45;2.72;;;1.20;;
83055;SDS011;72881;43.514;1.510;2024-03-02T03:54:10;2.85;;;0.90;;
83055;SDS011;72881;43.514;1.510;2024-03-02T03:56:36;2.00;;;0.98;;
83055;SDS011;72881;43.514;1.510;2024-03-02T03:59:02;1.80;;;0.90;;
83055;SDS011;72881;43.514;1.510;2024-03-02T04:01:27;1.98;;;1.00;;
83055;SDS011;72881;43.514;1.510;2024-03-02T04:03:53;1.80;;;0.90;;
83055;SDS011;72881;43.514;1.510;2024-03-02T04:06:18;1.98;;;1.00;;
83055;SDS011;72881;43.514;1.510;2024-03-02T04:08:44;2.00;;;1.00;;
83055;SDS011;72881;43.514;1.510;2024-03-02T04:11:09;1.88;;;1.00;;
83055;SDS011;72881;43.514;1.510;2024-03-02T04:13:35;2.13;;;1.00;;
83055;SDS011;72881;43.514;1.510;2024-03-02T04:16:00;1.77;;;0.90;;
83055;SDS011;72881;43.514;1.510;2024-03-02T04:18:26;1.75;;;0.90;;
83055;SDS011;72881;43.514;1.510;2024-03-02T04:20:51;2.45;;;1.00;;
83055;SDS011;72881;43.514;1.510;2024-03-02T04:23:17;1.70;;;0.82;;
83055;SDS011;72881;43.514;1.510;2024-03-02T04:25:42;2.33;;;1.08;;
83055;SDS011;72881;43.514;1.510;2024-03-02T04:28:07;2.05;;;1.10;;
83055;SDS011;72881;43.514;1.510;2024-03-02T04:30:33;1.55;;;1.00;;
83055;SDS011;72881;43.514;1.510;2024-03-02T04:32:58;1.73;;;1.00;;
83055;SDS011;72881;43.514;1.510;2024-03-02T04:35:24;1.95;;;0.82;;
83055;SDS011;72881;43.514;1.510;2024-03-02T04:37:50;2.20;;;1.00;;
83055;SDS011;72881;43.514;1.510;2024-03-02T04:40:16;2.28;;;1.00;;
83055;SDS011;72881;43.514;1.510;2024-03-02T04:42:41;1.85;;;0.90;;
83055;SDS011;72881;43.514;1.510;2024-03-02T04:45:07;1.92;;;1.00;;
83055;SDS011;72881;43.514;1.510;2024-03-02T04:47:32;1.80;;;1.00;;
83055;SDS011;72881;43.514;1.510;2024-03-02T04:49:58;1.77;;;0.82;;
83055;SDS011;72881;43.514;1.510;2024-03-02T04:52:23;1.98;;;1.05;;
83055;SDS011;72881;43.514;1.510;2024-03-02T04:54:49;1.90;;;0.80;;
83055;SDS011;72881;43.514;1.510;2024-03-02T04:57:33;1.77;;;0.80;;
83055;SDS011;72881;43.514;1.510;2024-03-02T04:59:58;2.17;;;1.00;;
83055;SDS011;72881;43.514;1.510;2024-03-02T05:02:24;1.88;;;0.82;;
83055;SDS011;72881;43.514;1.510;2024-03-02T05:04:49;1.88;;;1.00;;
83055;SDS011;72881;43.514;1.510;2024-03-02T05:07:15;1.60;;;1.00;;
83055;SDS011;72881;43.514;1.510;2024-03-02T05:09:41;1.83;;;0.90;;
83055;SDS011;72881;43.514;1.510;2024-03-02T05:12:07;1.70;;;0.82;;
83055;SDS011;72881;43.514;1.510;2024-03-02T05:14:48;1.35;;;0.70;;
83055;SDS011;72881;43.514;1.510;2024-03-02T05:17:13;1.63;;;0.90;;
83055;SDS011;72881;43.514;1.510;2024-03-02T05:19:40;1.50;;;0.88;;
83055;SDS011;72881;43.514;1.510;2024-03-02T05:22:05;2.05;;;0.80;;
83055;SDS011;72881;43.514;1.510;2024-03-02T05:24:31;2.05;;;0.93;;
83055;SDS011;72881;43.514;1.510;2024-03-02T05:26:56;1.80;;;0.90;;
83055;SDS011;72881;43.514;1.510;2024-03-02T05:29:22;1.73;;;0.88;;
83055;SDS011;72881;43.514;1.510;2024-03-02T05:31:47;1.83;;;0.80;;
83055;SDS011;72881;43.514;1.510;2024-03-02T05:34:13;1.73;;;0.90;;
83055;SDS011;72881;43.514;1.510;2024-03-02T05:36:39;1.48;;;0.85;;
83055;SDS011;72881;43.514;1.510;2024-03-02T05:39:04;1.25;;;0.75;;
83055;SDS011;72881;43.514;1.510;2024-03-02T05:41:34;1.80;;;1.00;;
83055;SDS011;72881;43.514;1.510;2024-03-02T05:43:59;1.30;;;0.70;;
83055;SDS011;72881;43.514;1.510;2024-03-02T05:46:25;1.75;;;0.80;;
83055;SDS011;72881;43.514;1.510;2024-03-02T05:48:50;2.28;;;0.93;;
83055;SDS011;72881;43.514;1.510;2024-03-02T05:51:16;2.15;;;0.93;;
83055;SDS011;72881;43.514;1.510;2024-03-02T05:53:41;1.73;;;1.05;;
83055;SDS011;72881;43.514;1.510;2024-03-02T05:56:07;1.67;;;0.80;;
83055;SDS011;72881;43.514;1.510;2024-03-02T05:58:32;1.30;;;0.75;;
83055;SDS011;72881;43.514;1.510;2024-03-02T06:01:16;1.38;;;0.70;;
83055;SDS011;72881;43.514;1.510;2024-03-02T06:03:43;1.58;;;0.70;;
83055;SDS011;72881;43.514;1.510;2024-03-02T06:06:08;1.80;;;0.93;;
83055;SDS011;72881;43.514;1.510;2024-03-02T06:08:34;2.28;;;0.98;;
83055;SDS011;72881;43.514;1.510;2024-03-02T06:11:00;1.90;;;1.02;;
83055;SDS011;72881;43.514;1.510;2024-03-02T06:13:25;1.85;;;0.95;;
83055;SDS011;72881;43.514;1.510;2024-03-02T06:15:51;1.55;;;0.77;;
83055;SDS011;72881;43.514;1.510;2024-03-02T06:18:17;1.40;;;0.70;;
83055;SDS011;72881;43.514;1.510;2024-03-02T06:20:42;2.30;;;0.90;;
83055;SDS011;72881;43.514;1.510;2024-03-02T06:23:08;1.38;;;0.73;;
83055;SDS011;72881;43.514;1.510;2024-03-02T06:25:34;1.13;;;0.70;;
83055;SDS011;72881;43.514;1.510;2024-03-02T06:27:59;1.73;;;0.90;;
83055;SDS011;72881;43.514;1.510;2024-03-02T06:30:25;1.35;;;0.82;;
83055;SDS011;72881;43.514;1.510;2024-03-02T06:32:51;1.60;;;0.90;;
83055;SDS011;72881;43.514;1.510;2024-03-02T06:35:16;1.63;;;1.00;;
83055;SDS011;72881;43.514;1.510;2024-03-02T06:37:42;1.60;;;0.82;;
83055;SDS011;72881;43.514;1.510;2024-03-02T06:40:07;2.00;;;0.80;;
83055;SDS011;72881;43.514;1.510;2024-03-02T06:42:34;1.80;;;1.00;;
83055;SDS011;72881;43.514;1.510;2024-03-02T06:45:00;1.63;;;0.68;;
83055;SDS011;72881;43.514;1.510;2024-03-02T06:47:26;1.63;;;1.00;;
83055;SDS011;72881;43.514;1.510;2024-03-02T06:49:51;1.35;;;0.75;;
83055;SDS011;72881;43.514;1.510;2024-03-02T06:52:18;1.73;;;0.73;;
83055;SDS011;72881;43.514;1.510;2024-03-02T06:54:43;3.25;;;0.80;;
83055;SDS011;72881;43.514;1.510;2024-03-02T06:57:09;2.80;;;0.90;;
83055;SDS011;72881;43.514;1.510;2024-03-02T06:59:35;1.50;;;0.80;;
83055;SDS011;72881;43.514;1.510;2024-03-02T07:02:00;1.60;;;0.98;;
83055;SDS011;72881;43.514;1.510;2024-03-02T07:04:26;1.67;;;0.80;;
83055;SDS011;72881;43.514;1.510;2024-03-02T07:06:52;2.40;;;0.80;;
83055;SDS011;72881;43.514;1.510;2024-03-02T07:09:17;1.55;;;0.80;;
83055;SDS011;72881;43.514;1.510;2024-03-02T07:11:43;1.20;;;0.70;;
83055;SDS011;72881;43.514;1.510;2024-03-02T07:14:08;1.63;;;0.85;;
83055;SDS011;72881;43.514;1.510;2024-03-02T07:16:34;1.15;;;0.70;;
83055;SDS011;72881;43.514;1.510;2024-03-02T07:19:00;2.22;;;0.90;;
83055;SDS011;72881;43.514;1.510;2024-03-02T07:21:27;1.42;;;0.80;;
83055;SDS011;72881;43.514;1.510;2024-03-02T07:23:52;2.25;;;0.90;;
83055;SDS011;72881;43.514;1.510;2024-03-02T07:26:18;5.65;;;1.48;;
83055;SDS011;72881;43.514;1.510;2024-03-02T07:28:44;4.30;;;1.25;;
83055;SDS011;72881;43.514;1.510;2024-03-02T07:31:11;1.95;;;0.80;;
83055;SDS011;72881;43.514;1.510;2024-03-02T07:33:36;1.90;;;0.80;;
83055;SDS011;72881;43.514;1.510;2024-03-02T07:36:02;3.75;;;0.80;;
83055;SDS011;72881;43.514;1.510;2024-03-02T07:38:28;2.35;;;0.90;;
83055;SDS011;72881;43.514;1.510;2024-03-02T07:40:54;1.55;;;0.70;;
83055;SDS011;72881;43.514;1.510;2024-03-02T07:43:20;2.03;;;0.90;;
83055;SDS011;72881;43.514;1.510;2024-03-02T07:45:46;1.35;;;0.80;;
83055;SDS011;72881;43.514;1.510;2024-03-02T07:48:12;1.90;;;1.00;;
83055;SDS011;72881;43.514;1.510;2024-03-02T07:50:37;1.60;;;0.80;;
83055;SDS011;72881;43.514;1.510;2024-03-02T07:53:04;2.00;;;0.80;;
83055;SDS011;72881;43.514;1.510;2024-03-02T07:55:35;1.60;;;0.70;;
83055;SDS011;72881;43.514;1.510;2024-03-02T07:58:00;2.25;;;0.80;;
83055;SDS011;72881;43.514;1.510;2024-03-02T08:00:26;2.50;;;0.90;;
83055;SDS011;72881;43.514;1.510;2024-03-02T08:02:52;5.63;;;1.02;;
83055;SDS011;72881;43.514;1.510;2024-03-02T08:05:18;3.70;;;1.10;;
83055;SDS011;72881;43.514;1.510;2024-03-02T08:07:47;2.85;;;1.00;;
83055;SDS011;72881;43.514;1.510;2024-03-02T08:10:13;1.60;;;0.80;;
83055;SDS011;72881;43.514;1.510;2024-03-02T08:12:39;1.40;;;0.80;;
83055;SDS011;72881;43.514;1.510;2024-03-02T08:15:04;1.75;;;0.73;;
83055;SDS011;72881;43.514;1.510;2024-03-02T08:17:31;2.05;;;0.82;;
83055;SDS011;72881;43.514;1.510;2024-03-02T08:19:56;2.10;;;0.85;;
83055;SDS011;72881;43.514;1.510;2024-03-02T08:22:23;1.95;;;0.95;;
83055;SDS011;72881;43.514;1.510;2024-03-02T08:24:50;2.17;;;1.00;;
83055;SDS011;72881;43.514;1.510;2024-03-02T08:27:16;2.25;;;1.00;;
83055;SDS011;72881;43.514;1.510;2024-03-02T08:29:41;1.90;;;0.95;;
83055;SDS011;72881;43.514;1.510;2024-03-02T08:32:07;3.28;;;1.00;;
83055;SDS011;72881;43.514;1.510;2024-03-02T08:34:32;2.00;;;1.00;;
83055;SDS011;72881;43.514;1.510;2024-03-02T08:37:00;1.55;;;0.80;;
83055;SDS011;72881;43.514;1.510;2024-03-02T08:39:26;1.98;;;1.00;;
83055;SDS011;72881;43.514;1.510;2024-03-02T08:41:52;1.90;;;1.05;;
83055;SDS011;72881;43.514;1.510;2024-03-02T08:44:18;1.98;;;0.95;;
83055;SDS011;72881;43.514;1.510;2024-03-02T08:46:43;2.20;;;1.10;;
83055;SDS011;72881;43.514;1.510;2024-03-02T08:49:09;2.45;;;0.80;;
83055;SDS011;72881;43.514;1.510;2024-03-02T08:51:34;1.75;;;0.90;;
83055;SDS011;72881;43.514;1.510;2024-03-02T08:54:00;3.22;;;0.80;;
83055;SDS011;72881;43.514;1.510;2024-03-02T08:56:25;1.95;;;0.98;;
83055;SDS011;72881;43.514;1.510;2024-03-02T08:58:53;2.10;;;0.80;;
83055;SDS011;72881;43.514;1.510;2024-03-02T09:01:19;4.50;;;1.10;;
83055;SDS011;72881;43.514;1.510;2024-03-02T09:03:44;2.75;;;0.98;;
83055;SDS011;72881;43.514;1.510;2024-03-02T09:06:10;1.75;;;0.75;;
83055;SDS011;72881;43.514;1.510;2024-03-02T09:08:36;2.50;;;0.90;;
83055;SDS011;72881;43.514;1.510;2024-03-02T09:11:03;2.47;;;0.85;;
83055;SDS011;72881;43.514;1.510;2024-03-02T09:13:29;1.80;;;0.90;;
83055;SDS011;72881;43.514;1.510;2024-03-02T09:15:55;2.30;;;1.00;;
83055;SDS011;72881;43.514;1.510;2024-03-02T09:18:20;1.55;;;0.80;;
83055;SDS011;72881;43.514;1.510;2024-03-02T09:20:46;1.80;;;0.90;;
83055;SDS011;72881;43.514;1.510;2024-03-02T09:23:11;1.52;;;0.90;;
83055;SDS011;72881;43.514;1.510;2024-03-02T09:25:37;1.50;;;0.75;;
83055;SDS011;72881;43.514;1.510;2024-03-02T09:28:02;2.45;;;1.10;;
83055;SDS011;72881;43.514;1.510;2024-03-02T09:30:28;1.63;;;0.93;;
83055;SDS011;72881;43.514;1.510;2024-03-02T09:32:54;3.47;;;0.90;;
83055;SDS011;72881;43.514;1.510;2024-03-02T09:35:19;1.63;;;0.90;;
83055;SDS011;72881;43.514;1.510;2024-03-02T09:37:45;2.17;;;0.93;;
83055;SDS011;72881;43.514;1.510;2024-03-02T09:40:10;2.55;;;1.00;;
83055;SDS011;72881;43.514;1.510;2024-03-02T09:42:37;2.53;;;1.20;;
83055;SDS011;72881;43.514;1.510;2024-03-02T09:45:02;2.50;;;1.00;;
83055;SDS011;72881;43.514;1.510;2024-03-02T09:47:28;1.90;;;0.93;;
83055;SDS011;72881;43.514;1.510;2024-03-02T09:49:54;2.03;;;1.30;;
83055;SDS011;72881;43.514;1.510;2024-03-02T09:52:21;2.65;;;0.90;;
83055;SDS011;72881;43.514;1.510;2024-03-02T09:54:47;4.15;;;0.90;;
83055;SDS011;72881;43.514;1.510;2024-03-02T09:57:14;2.10;;;0.90;;
83055;SDS011;72881;43.514;1.510;2024-03-02T09:59:39;3.80;;;1.13;;
83055;SDS011;72881;43.514;1.510;2024-03-02T10:02:05;2.45;;;1.10;;
83055;SDS011;72881;43.514;1.510;2024-03-02T10:04:32;2.10;;;0.90;;
83055;SDS011;72881;43.514;1.510;2024-03-02T10:07:19;1.98;;;0.85;;
83055;SDS011;72881;43.514;1.510;2024-03-02T10:09:45;4.20;;;1.10;;
83055;SDS011;72881;43.514;1.510;2024-03-02T10:12:12;2.17;;;0.93;;
83055;SDS011;72881;43.514;1.510;2024-03-02T10:14:39;3.85;;;1.00;;
83055;SDS011;72881;43.514;1.510;2024-03-02T10:17:06;1.95;;;0.80;;
83055;SDS011;72881;43.514;1.510;2024-03-02T10:19:33;3.42;;;1.08;;
83055;SDS011;72881;43.514;1.510;2024-03-02T10:22:00;1.80;;;0.90;;
83055;SDS011;72881;43.514;1.510;2024-03-02T10:24:27;1.88;;;1.00;;
83055;SDS011;72881;43.514;1.510;2024-03-02T10:26:53;2.88;;;0.90;;
83055;SDS011;72881;43.514;1.510;2024-03-02T10:29:19;3.25;;;1.00;;
83055;SDS011;72881;43.514;1.510;2024-03-02T10:31:45;1.75;;;0.93;;
83055;SDS011;72881;43.514;1.510;2024-03-02T10:34:11;2.45;;;1.00;;
83055;SDS011;72881;43.514;1.510;2024-03-02T10:36:37;5.32;;;0.82;;
83055;SDS011;72881;43.514;1.510;2024-03-02T10:39:06;6.05;;;1.00;;
83055;SDS011;72881;43.514;1.510;2024-03-02T10:41:35;4.07;;;1.08;;
83055;SDS011;72881;43.514;1.510;2024-03-02T10:44:08;2.35;;;0.73;;
83055;SDS011;72881;43.514;1.510;2024-03-02T10:46:35;3.53;;;1.00;;
83055;SDS011;72881;43.514;1.510;2024-03-02T10:49:02;3.83;;;1.02;;
83055;SDS011;72881;43.514;1.510;2024-03-02T10:51:29;5.88;;;1.15;;
83055;SDS011;72881;43.514;1.510;2024-03-02T10:54:01;2.03;;;0.63;;
83055;SDS011;72881;43.514;1.510;2024-03-02T10:56:29;6.20;;;1.75;;
83055;SDS011;72881;43.514;1.510;2024-03-02T11:01:59;3.65;;;1.00;;
83055;SDS011;72881;43.514;1.510;2024-03-02T11:04:26;3.90;;;1.08;;
83055;SDS011;72881;43.514;1.510;2024-03-02T11:06:54;3.13;;;1.10;;
83055;SDS011;72881;43.514;1.510;2024-03-02T11:09:25;5.22;;;1.45;;
83055;SDS011;72881;43.514;1.510;2024-03-02T11:11:54;3.70;;;1.17;;
83055;SDS011;72881;43.514;1.510;2024-03-02T11:14:24;4.82;;;1.40;;
83055;SDS011;72881;43.514;1.510;2024-03-02T11:16:50;5.25;;;1.20;;
83055;SDS011;72881;43.514;1.510;2024-03-02T11:19:16;3.38;;;1.23;;
83055;SDS011;72881;43.514;1.510;2024-03-02T11:21:42;3.45;;;1.00;;
83055;SDS011;72881;43.514;1.510;2024-03-02T11:26:49;6.15;;;1.35;;
83055;SDS011;72881;43.514;1.510;2024-03-02T11:32:04;3.95;;;1.13;;
83055;SDS011;72881;43.514;1.510;2024-03-02T11:34:32;5.35;;;1.30;;
83055;SDS011;72881;43.514;1.510;2024-03-02T11:36:59;3.85;;;1.25;;
83055;SDS011;72881;43.514;1.510;2024-03-02T11:39:26;3.45;;;1.25;;
83055;SDS011;72881;43.514;1.510;2024-03-02T11:41:52;4.65;;;1.13;;
83055;SDS011;72881;43.514;1.510;2024-03-02T11:44:17;4.10;;;1.15;;
83055;SDS011;72881;43.514;1.510;2024-03-02T11:47:02;4.45;;;1.10;;
83055;SDS011;72881;43.514;1.510;2024-03-02T11:49:41;4.18;;;1.08;;
83055;SDS011;72881;43.514;1.510;2024-03-02T11:52:08;4.50;;;1.30;;
83055;SDS011;72881;43.514;1.510;2024-03-02T11:54:36;3.10;;;1.13;;
83055;SDS011;72881;43.514;1.510;2024-03-02T11:57:04;5.88;;;1.35;;
83055;SDS011;72881;43.514;1.510;2024-03-02T11:59:31;3.75;;;1.27;;
83055;SDS011;72881;43.514;1.510;2024-03-02T12:01:57;5.20;;;1.10;;
83055;SDS011;72881;43.514;1.510;2024-03-02T12:04:23;7.85;;;1.40;;
83055;SDS011;72881;43.514;1.510;2024-03-02T12:06:55;11.07;;;1.42;;
83055;SDS011;72881;43.514;1.510;2024-03-02T12:09:25;4.22;;;1.30;;
83055;SDS011;72881;43.514;1.510;2024-03-02T12:12:08;4.93;;;1.50;;
83055;SDS011;72881;43.514;1.510;2024-03-02T12:14:35;4.43;;;1.55;;
83055;SDS011;72881;43.514;1.510;2024-03-02T12:17:01;4.97;;;1.38;;
83055;SDS011;72881;43.514;1.510;2024-03-02T12:19:27;8.98;;;1.70;;
83055;SDS011;72881;43.514;1.510;2024-03-02T12:21:55;4.35;;;1.70;;
83055;SDS011;72881;43.514;1.510;2024-03-02T12:24:24;4.25;;;1.27;;
83055;SDS011;72881;43.514;1.510;2024-03-02T12:26:51;5.80;;;1.70;;
83055;SDS011;72881;43.514;1.510;2024-03-02T12:29:18;5.25;;;1.80;;
83055;SDS011;72881;43.514;1.510;2024-03-02T12:31:44;6.68;;;1.63;;
83055;SDS011;72881;43.514;1.510;2024-03-02T12:34:13;6.20;;;1.50;;
83055;SDS011;72881;43.514;1.510;2024-03-02T12:36:39;4.25;;;1.60;;
83055;SDS011;72881;43.514;1.510;2024-03-02T12:39:06;4.25;;;1.55;;
83055;SDS011;72881;43.514;1.510;2024-03-02T12:41:37;4.22;;;1.50;;
83055;SDS011;72881;43.514;1.510;2024-03-02T12:44:03;6.25;;;1.70;;
83055;SDS011;72881;43.514;1.510;2024-03-02T12:46:30;5.00;;;1.50;;
83055;SDS011;72881;43.514;1.510;2024-03-02T12:48:56;5.72;;;1.60;;
83055;SDS011;72881;43.514;1.510;2024-03-02T12:51:21;5.85;;;1.60;;
83055;SDS011;72881;43.514;1.510;2024-03-02T12:54:08;4.97;;;1.60;;
83055;SDS011;72881;43.514;1.510;2024-03-02T12:56:33;4.20;;;1.60;;
83055;SDS011;72881;43.514;1.510;2024-03-02T12:58:59;5.97;;;1.80;;
83055;SDS011;72881;43.514;1.510;2024-03-02T13:01:24;4.53;;;1.45;;
83055;SDS011;72881;43.514;1.510;2024-03-02T13:03:50;4.90;;;1.40;;
83055;SDS011;72881;43.514;1.510;2024-03-02T13:06:16;8.90;;;1.95;;
83055;SDS011;72881;43.514;1.510;2024-03-02T13:08:42;5.45;;;1.85;;
83055;SDS011;72881;43.514;1.510;2024-03-02T13:11:08;7.15;;;1.90;;
83055;SDS011;72881;43.514;1.510;2024-03-02T13:13:33;5.93;;;1.63;;
83055;SDS011;72881;43.514;1.510;2024-03-02T13:16:00;4.53;;;1.75;;
83055;SDS011;72881;43.514;1.510;2024-03-02T13:18:25;4.30;;;1.65;;
83055;SDS011;72881;43.514;1.510;2024-03-02T13:20:51;4.30;;;1.50;;
83055;SDS011;72881;43.514;1.510;2024-03-02T13:23:17;7.97;;;1.92;;
83055;SDS011;72881;43.514;1.510;2024-03-02T13:25:42;5.35;;;2.10;;
83055;SDS011;72881;43.514;1.510;2024-03-02T13:28:08;6.22;;;1.65;;
83055;SDS011;72881;43.514;1.510;2024-03-02T13:30:34;7.15;;;1.58;;
83055;SDS011;72881;43.514;1.510;2024-03-02T13:32:59;4.72;;;1.52;;
83055;SDS011;72881;43.514;1.510;2024-03-02T13:35:25;12.07;;;1.70;;
83055;SDS011;72881;43.514;1.510;2024-03-02T13:37:51;8.35;;;2.05;;
83055;SDS011;72881;43.514;1.510;2024-03-02T13:40:16;3.63;;;1.38;;
83055;SDS011;72881;43.514;1.510;2024-03-02T13:42:48;5.70;;;1.50;;
83055;SDS011;72881;43.514;1.510;2024-03-02T13:45:14;5.70;;;1.52;;
83055;SDS011;72881;43.514;1.510;2024-03-02T13:47:40;7.80;;;1.85;;
83055;SDS011;72881;43.514;1.510;2024-03-02T13:50:06;7.82;;;1.50;;
83055;SDS011;72881;43.514;1.510;2024-03-02T13:52:32;5.50;;;1.42;;
83055;SDS011;72881;43.514;1.510;2024-03-02T13:54:58;5.32;;;1.50;;
83055;SDS011;72881;43.514;1.510;2024-03-02T13:57:23;8.63;;;1.55;;
83055;SDS011;72881;43.514;1.510;2024-03-02T13:59:49;3.67;;;1.80;;
83055;SDS011;72881;43.514;1.510;2024-03-02T14:02:14;7.93;;;1.55;;
83055;SDS011;72881;43.514;1.510;2024-03-02T14:04:40;7.20;;;1.60;;
83055;SDS011;72881;43.514;1.510;2024-03-02T14:07:05;5.13;;;1.50;;
83055;SDS011;72881;43.514;1.510;2024-03-02T14:09:34;5.57;;;1.52;;
83055;SDS011;72881;43.514;1.510;2024-03-02T14:11:59;3.92;;;1.33;;
83055;SDS011;72881;43.514;1.510;2024-03-02T14:14:28;5.32;;;1.42;;
83055;SDS011;72881;43.514;1.510;2024-03-02T14:16:56;7.35;;;1.50;;
83055;SDS011;72881;43.514;1.510;2024-03-02T14:19:25;5.82;;;1.65;;
83055;SDS011;72881;43.514;1.510;2024-03-02T14:21:51;5.20;;;1.48;;
83055;SDS011;72881;43.514;1.510;2024-03-02T14:24:16;3.97;;;1.58;;
83055;SDS011;72881;43.514;1.510;2024-03-02T14:26:41;3.83;;;1.55;;
83055;SDS011;72881;43.514;1.510;2024-03-02T14:29:07;4.03;;;1.58;;
83055;SDS011;72881;43.514;1.510;2024-03-02T14:31:33;5.18;;;1.67;;
83055;SDS011;72881;43.514;1.510;2024-03-02T14:33:59;4.70;;;1.40;;
83055;SDS011;72881;43.514;1.510;2024-03-02T14:36:25;5.18;;;1.35;;
83055;SDS011;72881;43.514;1.510;2024-03-02T14:38:52;3.45;;;1.45;;
83055;SDS011;72881;43.514;1.510;2024-03-02T14:41:18;4.72;;;1.50;;
83055;SDS011;72881;43.514;1.510;2024-03-02T14:43:43;4.97;;;1.67;;
83055;SDS011;72881;43.514;1.510;2024-03-02T14:46:09;4.43;;;1.40;;
83055;SDS011;72881;43.514;1.510;2024-03-02T14:48:35;3.65;;;1.48;;
83055;SDS011;72881;43.514;1.510;2024-03-02T14:51:01;3.20;;;1.30;;
83055;SDS011;72881;43.514;1.510;2024-03-02T14:53:27;5.20;;;1.70;;